createdAt,value
2023-11-13T00:08:23.307Z,5.84
2023-11-13T00:18:31.037Z,5.92
2023-11-13T00:28:23.114Z,5.94
2023-11-13T00:38:22.994Z,5.97
2023-11-13T00:48:22.876Z,6.03
2023-11-13T00:58:22.821Z,6.03
2023-11-13T01:08:22.677Z,6.02
2023-11-13T01:18:22.556Z,6.03
2023-11-13T01:28:22.514Z,5.99
2023-11-13T01:38:22.345Z,5.99
2023-11-13T01:48:22.251Z,6.00
2023-11-13T01:58:22.214Z,6.05
2023-11-13T02:08:22.030Z,6.03
2023-11-13T02:18:21.931Z,5.95
2023-11-13T02:28:21.971Z,5.94
2023-11-13T02:38:21.757Z,5.89
2023-11-13T02:48:21.672Z,5.87
2023-11-13T02:58:21.600Z,5.76
2023-11-13T03:08:21.605Z,5.60
2023-11-13T03:18:21.533Z,5.42
2023-11-13T03:28:21.516Z,5.27
2023-11-13T03:38:21.244Z,5.16
2023-11-13T03:48:21.073Z,5.19
2023-11-13T03:58:21.502Z,5.19
2023-11-13T04:08:20.870Z,5.17
2023-11-13T04:18:20.958Z,5.15
2023-11-13T04:28:20.705Z,5.20
2023-11-13T04:38:20.563Z,5.27
2023-11-13T04:48:20.444Z,5.30
2023-11-13T04:58:29.106Z,5.30
2023-11-13T05:08:20.224Z,5.24
2023-11-13T05:18:20.056Z,5.16
2023-11-13T05:28:19.993Z,5.08
2023-11-13T05:38:19.915Z,4.98
2023-11-13T05:48:19.827Z,4.94
2023-11-13T05:58:19.739Z,4.88
2023-11-13T06:08:19.650Z,4.72
2023-11-13T06:18:19.558Z,4.51
2023-11-13T06:28:19.380Z,4.36
2023-11-13T06:38:19.265Z,4.22
2023-11-13T06:48:19.147Z,4.07
2023-11-13T06:58:19.115Z,4.14
2023-11-13T07:08:18.966Z,4.22
2023-11-13T07:18:19.739Z,4.42
2023-11-13T07:28:18.857Z,4.75
2023-11-13T07:38:18.737Z,4.95
2023-11-13T07:48:18.825Z,5.17
2023-11-13T07:58:18.531Z,5.49
2023-11-13T08:08:18.390Z,5.99
2023-11-13T08:18:18.352Z,6.05
2023-11-13T08:28:18.376Z,6.32
2023-11-13T08:38:18.072Z,6.59
2023-11-13T08:48:18.027Z,6.47
2023-11-13T08:58:17.909Z,6.43
2023-11-13T09:08:17.710Z,6.89
2023-11-13T09:18:17.742Z,7.75
2023-11-13T09:28:17.709Z,8.15
2023-11-13T09:38:17.424Z,8.08
2023-11-13T09:48:18.325Z,8.56
2023-11-13T09:58:17.312Z,8.51
2023-11-13T10:08:17.163Z,8.59
2023-11-13T10:18:17.241Z,8.54
2023-11-13T10:28:16.937Z,8.54
2023-11-13T10:38:16.968Z,8.90
2023-11-13T10:48:18.796Z,9.04
2023-11-13T10:58:16.710Z,8.82
2023-11-13T11:08:16.481Z,8.86
2023-11-13T11:18:16.419Z,9.24
2023-11-13T11:28:16.441Z,9.08
2023-11-13T11:38:16.732Z,9.28
2023-11-13T11:48:16.312Z,9.24
2023-11-13T11:58:16.015Z,9.35
2023-11-13T12:08:15.835Z,9.41
2023-11-13T12:18:15.822Z,9.31
2023-11-13T12:28:15.672Z,9.08
2023-11-13T12:38:15.566Z,9.02
2023-11-13T12:48:15.484Z,8.97
2023-11-13T12:58:16.393Z,9.26
2023-11-13T13:08:15.344Z,9.38
2023-11-13T13:18:15.092Z,9.51
2023-11-13T13:28:15.055Z,9.69
2023-11-13T13:38:14.913Z,9.70
2023-11-13T13:48:14.904Z,9.43
2023-11-13T13:58:14.815Z,8.89
2023-11-13T14:08:15.401Z,8.65
2023-11-13T14:18:14.914Z,8.69
2023-11-13T14:28:14.807Z,8.64
2023-11-13T14:38:14.680Z,8.64
2023-11-13T14:48:15.186Z,8.65
2023-11-13T14:58:14.119Z,8.53
2023-11-13T15:08:14.131Z,8.41
2023-11-13T15:18:14.084Z,8.38
2023-11-13T15:28:14.133Z,8.33
2023-11-13T15:38:14.836Z,8.23
2023-11-13T15:48:13.578Z,8.20
2023-11-13T15:58:13.537Z,8.15
2023-11-13T16:08:13.305Z,8.14
2023-11-13T16:18:13.312Z,8.13
2023-11-13T16:28:13.204Z,8.08
2023-11-13T16:38:13.052Z,8.02
2023-11-13T16:48:12.998Z,8.04
2023-11-13T16:58:19.049Z,8.11
2023-11-13T17:08:12.690Z,7.90
2023-11-13T17:18:12.597Z,7.71
2023-11-13T17:28:12.552Z,7.48
2023-11-13T17:38:14.810Z,7.18
2023-11-13T17:48:12.295Z,7.02
2023-11-13T17:58:12.159Z,7.02
2023-11-13T18:08:12.050Z,7.07
2023-11-13T18:18:12.494Z,7.09
2023-11-13T18:28:12.495Z,7.04
2023-11-13T18:38:11.866Z,7.07
2023-11-13T18:48:12.522Z,7.04
2023-11-13T18:58:12.468Z,7.07
2023-11-13T19:08:11.496Z,7.07
2023-11-13T19:18:11.766Z,7.15
2023-11-13T19:28:13.292Z,7.20
2023-11-13T19:38:11.554Z,7.28
2023-11-13T19:48:12.692Z,7.28
2023-11-13T19:58:11.913Z,7.26
2023-11-13T20:08:10.932Z,7.23
2023-11-13T20:18:14.177Z,7.10
2023-11-13T20:28:10.591Z,7.33
2023-11-13T20:38:10.499Z,7.55
2023-11-13T20:48:10.444Z,7.72
2023-11-13T20:58:10.272Z,7.80
2023-11-13T21:08:10.155Z,7.89
2023-11-13T21:18:10.241Z,7.80
2023-11-13T21:28:10.186Z,7.96
2023-11-13T21:38:11.080Z,8.11
2023-11-13T21:48:09.844Z,8.32
2023-11-13T21:58:09.644Z,8.62
2023-11-13T22:08:09.548Z,8.68
2023-11-13T22:18:09.608Z,8.69
2023-11-13T22:28:09.317Z,8.59
2023-11-13T22:38:09.207Z,8.50
2023-11-13T22:48:09.149Z,8.36
2023-11-13T22:58:17.000Z,8.48
2023-11-13T23:08:08.935Z,8.75
2023-11-13T23:18:08.830Z,8.80
2023-11-13T23:28:08.713Z,8.89
2023-11-13T23:38:08.581Z,8.82
2023-11-13T23:48:16.540Z,8.86
2023-11-13T23:58:08.388Z,8.94
